sensor_id;sensor_type;location;lat;lon;timestamp;pressure;altitude;pressure_sealevel;temperature;humidity
75945;BME280;64628;50.104;14.614;2023-08-06T00:02:20;97766.10;;;18.92;49.03
75945;BME280;64628;50.104;14.614;2023-08-06T00:04:46;97761.66;;;18.93;48.94
75945;BME280;64628;50.104;14.614;2023-08-06T00:07:10;97762.86;;;18.73;49.17
75945;BME280;64628;50.104;14.614;2023-08-06T00:09:36;97765.86;;;19.00;49.15
75945;BME280;64628;50.104;14.614;2023-08-06T00:12:02;97772.61;;;18.84;49.06
75945;BME280;64628;50.104;14.614;2023-08-06T00:14:27;97772.16;;;18.82;49.09
75945;BME280;64628;50.104;14.614;2023-08-06T00:16:52;97765.25;;;18.84;49.15
75945;BME280;64628;50.104;14.614;2023-08-06T00:19:17;97758.92;;;18.59;49.06
75945;BME280;64628;50.104;14.614;2023-08-06T00:21:42;97748.60;;;18.84;49.15
75945;BME280;64628;50.104;14.614;2023-08-06T00:24:08;97745.41;;;18.93;49.20
75945;BME280;64628;50.104;14.614;2023-08-06T00:26:33;97744.96;;;18.86;49.05
75945;BME280;64628;50.104;14.614;2023-08-06T00:28:58;97748.87;;;18.95;48.74
75945;BME280;64628;50.104;14.614;2023-08-06T00:31:24;97740.01;;;18.93;48.87
75945;BME280;64628;50.104;14.614;2023-08-06T00:33:50;97729.55;;;18.76;49.15
75945;BME280;64628;50.104;14.614;2023-08-06T00:36:15;97724.71;;;18.80;49.02
75945;BME280;64628;50.104;14.614;2023-08-06T00:38:41;97725.90;;;18.84;48.98
75945;BME280;64628;50.104;14.614;2023-08-06T00:41:06;97725.68;;;18.78;49.04
75945;BME280;64628;50.104;14.614;2023-08-06T00:43:31;97719.50;;;18.82;49.03
75945;BME280;64628;50.104;14.614;2023-08-06T00:45:57;97716.95;;;18.93;48.89
75945;BME280;64628;50.104;14.614;2023-08-06T00:48:22;97717.55;;;18.88;48.85
75945;BME280;64628;50.104;14.614;2023-08-06T00:50:48;97721.05;;;18.69;49.11
75945;BME280;64628;50.104;14.614;2023-08-06T00:53:14;97719.45;;;18.71;49.51
75945;BME280;64628;50.104;14.614;2023-08-06T00:55:39;97719.15;;;18.43;49.78
75945;BME280;64628;50.104;14.614;2023-08-06T00:58:04;97715.30;;;18.60;49.36
75945;BME280;64628;50.104;14.614;2023-08-06T01:00:30;97707.90;;;18.67;49.30
75945;BME280;64628;50.104;14.614;2023-08-06T01:02:55;97704.17;;;18.74;49.21
75945;BME280;64628;50.104;14.614;2023-08-06T01:05:21;97704.26;;;18.66;49.21
75945;BME280;64628;50.104;14.614;2023-08-06T01:07:56;97707.34;;;18.65;49.29
75945;BME280;64628;50.104;14.614;2023-08-06T01:10:23;97707.66;;;19.03;49.11
75945;BME280;64628;50.104;14.614;2023-08-06T01:12:45;97710.58;;;19.08;48.90
75945;BME280;64628;50.104;14.614;2023-08-06T01:15:07;97707.24;;;18.58;49.13
75945;BME280;64628;50.104;14.614;2023-08-06T01:17:28;97701.75;;;18.62;49.06
75945;BME280;64628;50.104;14.614;2023-08-06T01:19:53;97697.39;;;18.79;48.71
75945;BME280;64628;50.104;14.614;2023-08-06T01:22:18;97689.93;;;18.73;48.77
75945;BME280;64628;50.104;14.614;2023-08-06T01:24:47;97687.97;;;18.73;48.78
75945;BME280;64628;50.104;14.614;2023-08-06T01:27:14;97685.75;;;18.55;49.03
75945;BME280;64628;50.104;14.614;2023-08-06T01:29:39;97689.49;;;18.69;48.94
75945;BME280;64628;50.104;14.614;2023-08-06T01:31:59;97689.00;;;18.81;48.81
75945;BME280;64628;50.104;14.614;2023-08-06T01:34:27;97682.61;;;18.69;48.72
75945;BME280;64628;50.104;14.614;2023-08-06T01:36:50;97679.13;;;18.80;48.52
75945;BME280;64628;50.104;14.614;2023-08-06T01:39:15;97674.43;;;18.58;48.51
75945;BME280;64628;50.104;14.614;2023-08-06T01:41:41;97668.73;;;18.78;48.55
75945;BME280;64628;50.104;14.614;2023-08-06T01:44:06;97669.10;;;18.79;48.44
75945;BME280;64628;50.104;14.614;2023-08-06T01:46:31;97669.69;;;18.80;48.40
75945;BME280;64628;50.104;14.614;2023-08-06T01:48:56;97673.75;;;18.87;48.45
75945;BME280;64628;50.104;14.614;2023-08-06T01:51:22;97675.70;;;18.72;48.39
75945;BME280;64628;50.104;14.614;2023-08-06T01:53:47;97676.90;;;18.60;48.67
75945;BME280;64628;50.104;14.614;2023-08-06T01:56:13;97676.43;;;18.69;48.54
75945;BME280;64628;50.104;14.614;2023-08-06T01:58:38;97678.89;;;18.67;48.44
75945;BME280;64628;50.104;14.614;2023-08-06T02:01:03;97681.09;;;18.63;48.61
75945;BME280;64628;50.104;14.614;2023-08-06T02:03:28;97681.62;;;18.77;48.40
75945;BME280;64628;50.104;14.614;2023-08-06T02:05:53;97682.82;;;18.67;48.42
75945;BME280;64628;50.104;14.614;2023-08-06T02:08:19;97681.13;;;18.72;48.39
75945;BME280;64628;50.104;14.614;2023-08-06T02:10:45;97678.78;;;18.76;48.38
75945;BME280;64628;50.104;14.614;2023-08-06T02:13:10;97674.13;;;18.71;48.41
75945;BME280;64628;50.104;14.614;2023-08-06T02:15:37;97667.93;;;18.79;48.29
75945;BME280;64628;50.104;14.614;2023-08-06T02:18:01;97662.40;;;19.11;48.49
75945;BME280;64628;50.104;14.614;2023-08-06T02:20:26;97658.40;;;18.65;48.43
75945;BME280;64628;50.104;14.614;2023-08-06T02:22:52;97655.20;;;18.54;48.41
75945;BME280;64628;50.104;14.614;2023-08-06T02:25:17;97651.84;;;18.52;48.50
75945;BME280;64628;50.104;14.614;2023-08-06T02:27:43;97647.12;;;18.49;48.69
75945;BME280;64628;50.104;14.614;2023-08-06T02:30:09;97648.33;;;18.75;48.75
75945;BME280;64628;50.104;14.614;2023-08-06T02:32:33;97645.42;;;18.59;48.50
75945;BME280;64628;50.104;14.614;2023-08-06T02:34:59;97649.03;;;18.54;48.50
75945;BME280;64628;50.104;14.614;2023-08-06T02:37:24;97649.46;;;18.87;48.46
75945;BME280;64628;50.104;14.614;2023-08-06T02:39:50;97647.59;;;18.42;48.66
75945;BME280;64628;50.104;14.614;2023-08-06T02:42:15;97645.69;;;18.48;48.67
75945;BME280;64628;50.104;14.614;2023-08-06T02:44:41;97643.15;;;18.61;48.73
75945;BME280;64628;50.104;14.614;2023-08-06T02:47:06;97643.42;;;18.28;48.88
75945;BME280;64628;50.104;14.614;2023-08-06T02:49:32;97638.47;;;18.19;49.20
75945;BME280;64628;50.104;14.614;2023-08-06T02:51:58;97641.76;;;18.80;49.01
75945;BME280;64628;50.104;14.614;2023-08-06T02:54:23;97646.35;;;18.40;48.82
75945;BME280;64628;50.104;14.614;2023-08-06T02:56:49;97646.33;;;18.71;49.10
75945;BME280;64628;50.104;14.614;2023-08-06T02:59:14;97652.55;;;18.86;49.05
75945;BME280;64628;50.104;14.614;2023-08-06T03:01:39;97650.60;;;18.34;49.01
75945;BME280;64628;50.104;14.614;2023-08-06T03:04:05;97644.09;;;18.44;49.01
75945;BME280;64628;50.104;14.614;2023-08-06T03:06:30;97641.19;;;18.51;48.92
75945;BME280;64628;50.104;14.614;2023-08-06T03:08:55;97635.26;;;18.46;48.97
75945;BME280;64628;50.104;14.614;2023-08-06T03:11:20;97631.36;;;18.47;48.96
75945;BME280;64628;50.104;14.614;2023-08-06T03:13:45;97628.95;;;18.51;48.99
75945;BME280;64628;50.104;14.614;2023-08-06T03:16:10;97624.84;;;18.45;48.91
75945;BME280;64628;50.104;14.614;2023-08-06T03:18:35;97619.49;;;18.51;49.24
75945;BME280;64628;50.104;14.614;2023-08-06T03:21:01;97615.30;;;18.84;49.22
75945;BME280;64628;50.104;14.614;2023-08-06T03:23:26;97608.03;;;18.49;49.03
75945;BME280;64628;50.104;14.614;2023-08-06T03:25:51;97606.33;;;18.56;49.00
75945;BME280;64628;50.104;14.614;2023-08-06T03:28:16;97604.16;;;18.61;49.09
75945;BME280;64628;50.104;14.614;2023-08-06T03:30:42;97602.49;;;18.05;49.16
75945;BME280;64628;50.104;14.614;2023-08-06T03:33:07;97596.64;;;18.26;49.20
75945;BME280;64628;50.104;14.614;2023-08-06T03:35:33;97598.21;;;18.63;49.04
75945;BME280;64628;50.104;14.614;2023-08-06T03:37:58;97596.64;;;18.39;49.18
75945;BME280;64628;50.104;14.614;2023-08-06T03:40:24;97594.60;;;18.69;49.29
75945;BME280;64628;50.104;14.614;2023-08-06T03:42:49;97596.29;;;18.35;49.35
75945;BME280;64628;50.104;14.614;2023-08-06T03:45:15;97594.61;;;17.84;49.90
75945;BME280;64628;50.104;14.614;2023-08-06T03:47:40;97592.27;;;18.40;49.31
75945;BME280;64628;50.104;14.614;2023-08-06T03:50:07;97587.64;;;18.11;49.39
75945;BME280;64628;50.104;14.614;2023-08-06T03:52:32;97588.50;;;18.11;49.42
75945;BME280;64628;50.104;14.614;2023-08-06T03:54:58;97584.52;;;18.69;49.23
75945;BME280;64628;50.104;14.614;2023-08-06T03:57:23;97581.47;;;18.20;49.21
75945;BME280;64628;50.104;14.614;2023-08-06T03:59:49;97575.36;;;18.46;49.55
75945;BME280;64628;50.104;14.614;2023-08-06T04:02:15;97571.00;;;18.45;49.17
75945;BME280;64628;50.104;14.614;2023-08-06T04:04:40;97568.82;;;18.00;49.54
75945;BME280;64628;50.104;14.614;2023-08-06T04:07:05;97564.27;;;18.20;49.28
75945;BME280;64628;50.104;14.614;2023-08-06T04:09:31;97562.09;;;18.58;49.17
75945;BME280;64628;50.104;14.614;2023-08-06T04:11:56;97552.75;;;18.09;49.30
75945;BME280;64628;50.104;14.614;2023-08-06T04:14:22;97552.16;;;18.36;49.32
75945;BME280;64628;50.104;14.614;2023-08-06T04:16:48;97549.79;;;18.34;49.29
75945;BME280;64628;50.104;14.614;2023-08-06T04:19:13;97546.51;;;18.37;49.61
75945;BME280;64628;50.104;14.614;2023-08-06T04:21:39;97541.07;;;18.02;49.39
75945;BME280;64628;50.104;14.614;2023-08-06T04:24:05;97537.53;;;18.38;49.23
75945;BME280;64628;50.104;14.614;2023-08-06T04:26:31;97538.68;;;18.27;49.39
75945;BME280;64628;50.104;14.614;2023-08-06T04:28:56;97542.36;;;18.43;49.06
75945;BME280;64628;50.104;14.614;2023-08-06T04:31:22;97544.64;;;18.21;49.11
75945;BME280;64628;50.104;14.614;2023-08-06T04:33:48;97549.88;;;18.30;49.26
75945;BME280;64628;50.104;14.614;2023-08-06T04:36:14;97550.94;;;18.45;49.40
75945;BME280;64628;50.104;14.614;2023-08-06T04:38:39;97550.61;;;18.33;49.27
75945;BME280;64628;50.104;14.614;2023-08-06T04:41:05;97543.94;;;18.17;49.43
75945;BME280;64628;50.104;14.614;2023-08-06T04:43:30;97536.51;;;18.18;49.16
75945;BME280;64628;50.104;14.614;2023-08-06T04:45:56;97532.51;;;17.97;49.53
75945;BME280;64628;50.104;14.614;2023-08-06T04:48:21;97530.11;;;17.89;49.62
75945;BME280;64628;50.104;14.614;2023-08-06T04:50:47;97526.79;;;18.08;49.37
75945;BME280;64628;50.104;14.614;2023-08-06T04:53:12;97525.01;;;18.39;49.26
75945;BME280;64628;50.104;14.614;2023-08-06T04:55:37;97519.35;;;18.70;49.35
75945;BME280;64628;50.104;14.614;2023-08-06T04:58:02;97517.74;;;18.10;49.38
75945;BME280;64628;50.104;14.614;2023-08-06T05:00:27;97515.79;;;18.67;49.04
75945;BME280;64628;50.104;14.614;2023-08-06T05:02:54;97517.97;;;18.25;49.15
75945;BME280;64628;50.104;14.614;2023-08-06T05:05:19;97516.54;;;18.45;48.94
75945;BME280;64628;50.104;14.614;2023-08-06T05:07:49;97520.29;;;18.58;48.70
75945;BME280;64628;50.104;14.614;2023-08-06T05:10:10;97519.50;;;18.40;48.87
75945;BME280;64628;50.104;14.614;2023-08-06T05:12:41;97519.10;;;18.49;48.82
75945;BME280;64628;50.104;14.614;2023-08-06T05:15:01;97522.21;;;18.56;48.74
75945;BME280;64628;50.104;14.614;2023-08-06T05:17:28;97522.68;;;18.66;48.66
75945;BME280;64628;50.104;14.614;2023-08-06T05:19:52;97528.36;;;18.48;48.84
75945;BME280;64628;50.104;14.614;2023-08-06T05:22:19;97524.11;;;18.25;49.20
75945;BME280;64628;50.104;14.614;2023-08-06T05:24:43;97521.80;;;18.16;49.66
75945;BME280;64628;50.104;14.614;2023-08-06T05:27:09;97523.62;;;18.58;49.11
75945;BME280;64628;50.104;14.614;2023-08-06T05:29:34;97521.56;;;18.87;49.04
75945;BME280;64628;50.104;14.614;2023-08-06T05:31:59;97520.73;;;18.62;49.17
75945;BME280;64628;50.104;14.614;2023-08-06T05:34:25;97520.94;;;18.83;48.89
75945;BME280;64628;50.104;14.614;2023-08-06T05:36:50;97520.49;;;18.94;48.81
75945;BME280;64628;50.104;14.614;2023-08-06T05:39:15;97523.10;;;18.98;48.51
75945;BME280;64628;50.104;14.614;2023-08-06T05:41:40;97520.63;;;19.10;48.57
75945;BME280;64628;50.104;14.614;2023-08-06T05:44:06;97517.16;;;19.06;48.56
75945;BME280;64628;50.104;14.614;2023-08-06T05:46:31;97516.59;;;19.12;48.53
75945;BME280;64628;50.104;14.614;2023-08-06T05:48:56;97515.90;;;19.26;48.49
75945;BME280;64628;50.104;14.614;2023-08-06T05:51:23;97516.01;;;19.35;48.30
75945;BME280;64628;50.104;14.614;2023-08-06T05:53:47;97517.17;;;19.08;48.17
75945;BME280;64628;50.104;14.614;2023-08-06T05:56:13;97517.31;;;19.06;48.44
75945;BME280;64628;50.104;14.614;2023-08-06T05:58:41;97522.71;;;19.34;48.21
75945;BME280;64628;50.104;14.614;2023-08-06T06:01:03;97518.45;;;19.07;48.56
75945;BME280;64628;50.104;14.614;2023-08-06T06:03:28;97517.35;;;19.25;48.12
75945;BME280;64628;50.104;14.614;2023-08-06T06:05:53;97512.43;;;19.35;48.19
75945;BME280;64628;50.104;14.614;2023-08-06T06:08:18;97509.65;;;19.18;48.15
75945;BME280;64628;50.104;14.614;2023-08-06T06:10:43;97503.29;;;19.57;48.34
75945;BME280;64628;50.104;14.614;2023-08-06T06:13:09;97504.35;;;19.50;48.21
75945;BME280;64628;50.104;14.614;2023-08-06T06:15:34;97503.99;;;19.36;48.10
75945;BME280;64628;50.104;14.614;2023-08-06T06:17:59;97509.31;;;19.25;48.02
75945;BME280;64628;50.104;14.614;2023-08-06T06:20:25;97509.40;;;19.43;47.94
75945;BME280;64628;50.104;14.614;2023-08-06T06:22:50;97510.88;;;18.91;47.94
75945;BME280;64628;50.104;14.614;2023-08-06T06:25:15;97508.22;;;19.46;48.14
75945;BME280;64628;50.104;14.614;2023-08-06T06:27:40;97503.06;;;19.52;48.29
75945;BME280;64628;50.104;14.614;2023-08-06T06:30:07;97502.91;;;19.08;48.27
75945;BME280;64628;50.104;14.614;2023-08-06T06:32:30;97504.87;;;19.23;48.43
75945;BME280;64628;50.104;14.614;2023-08-06T06:34:56;97505.32;;;19.15;48.26
75945;BME280;64628;50.104;14.614;2023-08-06T06:37:21;97502.13;;;19.19;48.07
75945;BME280;64628;50.104;14.614;2023-08-06T06:39:47;97502.70;;;19.60;48.00
75945;BME280;64628;50.104;14.614;2023-08-06T06:42:11;97501.70;;;19.59;47.89
75945;BME280;64628;50.104;14.614;2023-08-06T06:44:36;97503.33;;;19.50;47.79
75945;BME280;64628;50.104;14.614;2023-08-06T06:47:02;97500.86;;;19.63;47.62
75945;BME280;64628;50.104;14.614;2023-08-06T06:49:27;97502.13;;;19.79;47.68
75945;BME280;64628;50.104;14.614;2023-08-06T06:51:52;97505.57;;;19.88;47.56
75945;BME280;64628;50.104;14.614;2023-08-06T06:54:17;97508.06;;;20.04;47.55
75945;BME280;64628;50.104;14.614;2023-08-06T06:56:42;97504.12;;;19.74;47.41
75945;BME280;64628;50.104;14.614;2023-08-06T06:59:08;97506.37;;;19.87;46.86
75945;BME280;64628;50.104;14.614;2023-08-06T07:01:33;97506.25;;;19.88;47.17
75945;BME280;64628;50.104;14.614;2023-08-06T07:03:59;97501.06;;;19.91;47.26
75945;BME280;64628;50.104;14.614;2023-08-06T07:06:24;97499.15;;;19.89;47.29
75945;BME280;64628;50.104;14.614;2023-08-06T07:08:50;97501.72;;;19.71;47.08
75945;BME280;64628;50.104;14.614;2023-08-06T07:11:15;97502.90;;;19.89;47.46
75945;BME280;64628;50.104;14.614;2023-08-06T07:13:41;97504.70;;;19.97;47.59
75945;BME280;64628;50.104;14.614;2023-08-06T07:16:07;97504.37;;;20.10;47.40
75945;BME280;64628;50.104;14.614;2023-08-06T07:18:32;97506.52;;;20.07;47.26
75945;BME280;64628;50.104;14.614;2023-08-06T07:20:58;97502.84;;;19.91;47.55
75945;BME280;64628;50.104;14.614;2023-08-06T07:23:24;97496.43;;;20.05;47.52
75945;BME280;64628;50.104;14.614;2023-08-06T07:25:48;97497.65;;;20.17;47.41
75945;BME280;64628;50.104;14.614;2023-08-06T07:28:14;97499.94;;;20.21;47.14
75945;BME280;64628;50.104;14.614;2023-08-06T07:30:39;97501.27;;;20.38;47.25
75945;BME280;64628;50.104;14.614;2023-08-06T07:33:05;97495.79;;;20.19;47.43
75945;BME280;64628;50.104;14.614;2023-08-06T07:35:30;97494.57;;;20.18;47.31
75945;BME280;64628;50.104;14.614;2023-08-06T07:37:55;97491.74;;;20.54;47.24
75945;BME280;64628;50.104;14.614;2023-08-06T07:40:21;97491.23;;;20.43;47.31
75945;BME280;64628;50.104;14.614;2023-08-06T07:42:46;97487.96;;;20.25;46.84
75945;BME280;64628;50.104;14.614;2023-08-06T07:45:11;97484.62;;;20.42;46.89
75945;BME280;64628;50.104;14.614;2023-08-06T07:47:37;97481.46;;;20.48;47.24
75945;BME280;64628;50.104;14.614;2023-08-06T07:50:03;97479.89;;;20.58;46.90
75945;BME280;64628;50.104;14.614;2023-08-06T07:52:27;97476.20;;;20.43;46.40
75945;BME280;64628;50.104;14.614;2023-08-06T07:54:53;97474.86;;;20.30;46.96
75945;BME280;64628;50.104;14.614;2023-08-06T07:57:19;97475.45;;;20.39;46.93
75945;BME280;64628;50.104;14.614;2023-08-06T07:59:44;97476.34;;;20.24;46.90
75945;BME280;64628;50.104;14.614;2023-08-06T08:02:10;97476.65;;;20.45;46.52
75945;BME280;64628;50.104;14.614;2023-08-06T08:04:36;97474.30;;;20.28;46.61
75945;BME280;64628;50.104;14.614;2023-08-06T08:07:03;97473.29;;;20.09;47.46
75945;BME280;64628;50.104;14.614;2023-08-06T08:09:26;97470.06;;;20.19;47.58
75945;BME280;64628;50.104;14.614;2023-08-06T08:11:52;97464.61;;;20.33;47.75
75945;BME280;64628;50.104;14.614;2023-08-06T08:14:18;97460.21;;;20.49;47.51
75945;BME280;64628;50.104;14.614;2023-08-06T08:16:43;97459.12;;;20.36;47.65
75945;BME280;64628;50.104;14.614;2023-08-06T08:19:09;97456.62;;;20.80;47.51
75945;BME280;64628;50.104;14.614;2023-08-06T08:21:36;97456.00;;;20.77;47.33
75945;BME280;64628;50.104;14.614;2023-08-06T08:24:00;97456.56;;;20.93;47.17
75945;BME280;64628;50.104;14.614;2023-08-06T08:26:25;97456.62;;;20.71;47.20
75945;BME280;64628;50.104;14.614;2023-08-06T08:28:50;97454.70;;;20.94;46.40
75945;BME280;64628;50.104;14.614;2023-08-06T08:31:16;97451.41;;;20.70;46.80
75945;BME280;64628;50.104;14.614;2023-08-06T08:33:42;97446.96;;;21.17;46.93
75945;BME280;64628;50.104;14.614;2023-08-06T08:36:08;97445.28;;;20.91;46.84
75945;BME280;64628;50.104;14.614;2023-08-06T08:38:33;97443.00;;;20.96;46.69
75945;BME280;64628;50.104;14.614;2023-08-06T08:40:59;97443.40;;;20.91;46.56
75945;BME280;64628;50.104;14.614;2023-08-06T08:43:25;97445.60;;;21.12;46.47
75945;BME280;64628;50.104;14.614;2023-08-06T08:45:53;97443.05;;;21.17;46.56
75945;BME280;64628;50.104;14.614;2023-08-06T08:48:16;97446.20;;;20.68;46.88
75945;BME280;64628;50.104;14.614;2023-08-06T08:50:40;97443.80;;;20.91;46.22
75945;BME280;64628;50.104;14.614;2023-08-06T08:53:06;97442.04;;;20.57;46.81
75945;BME280;64628;50.104;14.614;2023-08-06T08:55:32;97438.93;;;20.68;46.52
75945;BME280;64628;50.104;14.614;2023-08-06T08:57:55;97434.45;;;21.05;46.15
75945;BME280;64628;50.104;14.614;2023-08-06T09:00:21;97430.72;;;20.86;46.16
75945;BME280;64628;50.104;14.614;2023-08-06T09:02:46;97429.87;;;20.11;46.24
75945;BME280;64628;50.104;14.614;2023-08-06T09:05:13;97427.24;;;20.25;46.84
75945;BME280;64628;50.104;14.614;2023-08-06T09:07:42;97427.41;;;20.55;46.85
75945;BME280;64628;50.104;14.614;2023-08-06T09:10:04;97425.14;;;20.67;46.71
75945;BME280;64628;50.104;14.614;2023-08-06T09:12:29;97424.09;;;20.35;47.03
75945;BME280;64628;50.104;14.614;2023-08-06T09:14:54;97418.18;;;20.33;46.80
75945;BME280;64628;50.104;14.614;2023-08-06T09:17:19;97417.35;;;20.67;47.14
75945;BME280;64628;50.104;14.614;2023-08-06T09:19:45;97414.58;;;20.52;46.53
75945;BME280;64628;50.104;14.614;2023-08-06T09:22:12;97414.67;;;20.80;46.62
75945;BME280;64628;50.104;14.614;2023-08-06T09:24:38;97411.96;;;20.75;46.27
75945;BME280;64628;50.104;14.614;2023-08-06T09:27:10;97412.02;;;20.74;46.51
75945;BME280;64628;50.104;14.614;2023-08-06T09:29:31;97416.33;;;20.38;46.41
75945;BME280;64628;50.104;14.614;2023-08-06T09:31:56;97415.97;;;19.96;46.19
75945;BME280;64628;50.104;14.614;2023-08-06T09:34:18;97416.20;;;20.69;46.75
75945;BME280;64628;50.104;14.614;2023-08-06T09:36:42;97416.94;;;20.59;46.10
75945;BME280;64628;50.104;14.614;2023-08-06T09:39:12;97413.09;;;20.40;46.31
75945;BME280;64628;50.104;14.614;2023-08-06T09:41:32;97411.47;;;20.70;46.23
75945;BME280;64628;50.104;14.614;2023-08-06T09:43:57;97411.16;;;20.71;46.05
75945;BME280;64628;50.104;14.614;2023-08-06T09:46:23;97410.27;;;20.28;46.18
75945;BME280;64628;50.104;14.614;2023-08-06T09:48:48;97413.34;;;20.70;46.12
75945;BME280;64628;50.104;14.614;2023-08-06T09:51:14;97407.13;;;21.09;45.28
75945;BME280;64628;50.104;14.614;2023-08-06T09:53:41;97406.04;;;20.75;45.78
75945;BME280;64628;50.104;14.614;2023-08-06T09:56:04;97406.79;;;20.65;45.83
75945;BME280;64628;50.104;14.614;2023-08-06T09:58:32;97400.56;;;20.89;45.69
75945;BME280;64628;50.104;14.614;2023-08-06T10:00:55;97398.29;;;20.92;44.06
75945;BME280;64628;50.104;14.614;2023-08-06T10:03:20;97395.73;;;20.71;44.70
75945;BME280;64628;50.104;14.614;2023-08-06T10:05:45;97398.88;;;20.98;44.79
75945;BME280;64628;50.104;14.614;2023-08-06T10:08:10;97399.65;;;20.50;44.31
75945;BME280;64628;50.104;14.614;2023-08-06T10:10:35;97395.86;;;20.68;43.74
75945;BME280;64628;50.104;14.614;2023-08-06T10:13:01;97395.95;;;20.77;44.46
75945;BME280;64628;50.104;14.614;2023-08-06T10:15:29;97391.16;;;20.84;44.61
75945;BME280;64628;50.104;14.614;2023-08-06T10:17:52;97386.10;;;20.42;44.64
75945;BME280;64628;50.104;14.614;2023-08-06T10:20:16;97387.01;;;21.01;44.77
75945;BME280;64628;50.104;14.614;2023-08-06T10:22:43;97380.24;;;20.72;44.88
75945;BME280;64628;50.104;14.614;2023-08-06T10:25:06;97382.31;;;20.74;44.78
75945;BME280;64628;50.104;14.614;2023-08-06T10:27:34;97379.72;;;21.19;44.23
75945;BME280;64628;50.104;14.614;2023-08-06T10:34:54;97377.80;;;21.53;44.95
75945;BME280;64628;50.104;14.614;2023-08-06T10:37:15;97375.71;;;21.80;44.09
75945;BME280;64628;50.104;14.614;2023-08-06T10:39:47;97376.00;;;22.08;43.17
75945;BME280;64628;50.104;14.614;2023-08-06T10:42:03;97373.41;;;21.93;42.50
75945;BME280;64628;50.104;14.614;2023-08-06T10:44:28;97370.97;;;21.91;42.68
75945;BME280;64628;50.104;14.614;2023-08-06T10:46:53;97370.50;;;21.80;43.47
75945;BME280;64628;50.104;14.614;2023-08-06T10:49:19;97370.70;;;22.31;42.07
75945;BME280;64628;50.104;14.614;2023-08-06T10:51:44;97371.70;;;21.86;43.12
75945;BME280;64628;50.104;14.614;2023-08-06T10:54:09;97372.10;;;21.72;42.84
75945;BME280;64628;50.104;14.614;2023-08-06T10:56:39;97366.44;;;21.90;42.63
75945;BME280;64628;50.104;14.614;2023-08-06T10:58:59;97371.65;;;21.45;42.80
75945;BME280;64628;50.104;14.614;2023-08-06T11:01:24;97371.83;;;21.54;43.44
75945;BME280;64628;50.104;14.614;2023-08-06T11:03:51;97370.00;;;21.73;43.46
75945;BME280;64628;50.104;14.614;2023-08-06T11:08:46;97370.92;;;21.53;43.18
75945;BME280;64628;50.104;14.614;2023-08-06T11:11:09;97372.34;;;21.78;42.23
75945;BME280;64628;50.104;14.614;2023-08-06T11:13:31;97369.87;;;21.97;42.21
75945;BME280;64628;50.104;14.614;2023-08-06T11:15:56;97374.29;;;21.78;42.52
75945;BME280;64628;50.104;14.614;2023-08-06T11:18:21;97374.25;;;21.58;42.14
75945;BME280;64628;50.104;14.614;2023-08-06T11:20:46;97377.81;;;21.56;42.05
75945;BME280;64628;50.104;14.614;2023-08-06T11:23:11;97380.71;;;21.33;42.86
75945;BME280;64628;50.104;14.614;2023-08-06T11:25:36;97375.30;;;21.58;41.35
75945;BME280;64628;50.104;14.614;2023-08-06T11:28:01;97374.84;;;21.51;40.80
75945;BME280;64628;50.104;14.614;2023-08-06T11:30:27;97373.16;;;21.41;40.87
75945;BME280;64628;50.104;14.614;2023-08-06T11:32:52;97375.66;;;21.76;41.31
75945;BME280;64628;50.104;14.614;2023-08-06T11:35:17;97378.03;;;21.84;41.41
75945;BME280;64628;50.104;14.614;2023-08-06T11:37:44;97374.92;;;21.55;41.41
75945;BME280;64628;50.104;14.614;2023-08-06T11:40:09;97372.05;;;21.58;40.46
75945;BME280;64628;50.104;14.614;2023-08-06T11:42:33;97372.90;;;21.81;40.65
75945;BME280;64628;50.104;14.614;2023-08-06T11:44:57;97375.08;;;21.81;40.96
75945;BME280;64628;50.104;14.614;2023-08-06T11:47:23;97376.81;;;21.81;40.38
75945;BME280;64628;50.104;14.614;2023-08-06T11:49:49;97377.73;;;21.84;39.60
75945;BME280;64628;50.104;14.614;2023-08-06T11:52:16;97378.96;;;21.63;39.34
75945;BME280;64628;50.104;14.614;2023-08-06T11:54:38;97379.23;;;21.74;39.98
75945;BME280;64628;50.104;14.614;2023-08-06T11:57:05;97379.82;;;21.76;39.60
75945;BME280;64628;50.104;14.614;2023-08-06T11:59:29;97382.89;;;21.80;40.52
75945;BME280;64628;50.104;14.614;2023-08-06T12:01:53;97383.72;;;21.42;40.18
75945;BME280;64628;50.104;14.614;2023-08-06T12:04:18;97381.67;;;21.65;39.60
75945;BME280;64628;50.104;14.614;2023-08-06T12:06:43;97385.98;;;21.79;40.18
75945;BME280;64628;50.104;14.614;2023-08-06T12:09:13;97385.04;;;21.80;38.58
75945;BME280;64628;50.104;14.614;2023-08-06T12:11:33;97381.93;;;21.87;38.98
75945;BME280;64628;50.104;14.614;2023-08-06T12:14:00;97379.69;;;21.98;39.25
75945;BME280;64628;50.104;14.614;2023-08-06T12:16:24;97374.15;;;22.00;38.58
75945;BME280;64628;50.104;14.614;2023-08-06T12:18:49;97373.74;;;22.11;38.99
75945;BME280;64628;50.104;14.614;2023-08-06T12:21:19;97374.99;;;22.36;39.03
75945;BME280;64628;50.104;14.614;2023-08-06T12:23:39;97378.93;;;21.90;39.52
75945;BME280;64628;50.104;14.614;2023-08-06T12:26:04;97376.20;;;21.99;39.45
75945;BME280;64628;50.104;14.614;2023-08-06T12:28:29;97373.31;;;22.25;39.27
75945;BME280;64628;50.104;14.614;2023-08-06T12:30:55;97370.63;;;22.28;39.57
75945;BME280;64628;50.104;14.614;2023-08-06T12:33:19;97369.71;;;22.13;39.39
75945;BME280;64628;50.104;14.614;2023-08-06T12:35:44;97366.45;;;22.53;38.92
75945;BME280;64628;50.104;14.614;2023-08-06T12:38:09;97369.13;;;22.49;39.15
75945;BME280;64628;50.104;14.614;2023-08-06T12:40:34;97364.33;;;22.21;38.38
75945;BME280;64628;50.104;14.614;2023-08-06T12:42:59;97365.62;;;22.57;38.87
75945;BME280;64628;50.104;14.614;2023-08-06T12:45:24;97366.43;;;22.44;39.15
75945;BME280;64628;50.104;14.614;2023-08-06T12:47:49;97366.34;;;22.16;39.46